sensor_id;sensor_type;location;lat;lon;timestamp;pressure;altitude;pressure_sealevel;temperature;humidity
75794;BME280;64418;47.536;19.074;2022-10-31T00:00:42;101021.16;;;11.92;90.51
75794;BME280;64418;47.536;19.074;2022-10-31T00:03:07;101017.81;;;11.90;90.55
75794;BME280;64418;47.536;19.074;2022-10-31T00:05:33;101013.59;;;11.81;91.08
75794;BME280;64418;47.536;19.074;2022-10-31T00:08:00;101017.38;;;11.86;90.70
75794;BME280;64418;47.536;19.074;2022-10-31T00:10:26;101013.63;;;11.87;90.83
75794;BME280;64418;47.536;19.074;2022-10-31T00:12:51;101012.16;;;11.85;91.02
75794;BME280;64418;47.536;19.074;2022-10-31T00:15:17;101014.03;;;11.84;91.05
75794;BME280;64418;47.536;19.074;2022-10-31T00:17:43;101002.75;;;11.87;90.83
75794;BME280;64418;47.536;19.074;2022-10-31T00:20:09;101008.00;;;11.89;90.73
75794;BME280;64418;47.536;19.074;2022-10-31T00:22:34;101011.66;;;11.75;91.34
75794;BME280;64418;47.536;19.074;2022-10-31T00:25:02;101014.00;;;11.78;91.32
75794;BME280;64418;47.536;19.074;2022-10-31T00:27:28;101013.59;;;11.81;91.08
75794;BME280;64418;47.536;19.074;2022-10-31T00:29:53;101012.16;;;11.85;90.98
75794;BME280;64418;47.536;19.074;2022-10-31T00:32:19;101004.34;;;11.75;91.13
75794;BME280;64418;47.536;19.074;2022-10-31T00:34:45;101007.28;;;11.74;91.11
75794;BME280;64418;47.536;19.074;2022-10-31T00:37:11;101005.59;;;11.73;90.94
75794;BME280;64418;47.536;19.074;2022-10-31T00:39:36;101002.59;;;11.68;91.12
75794;BME280;64418;47.536;19.074;2022-10-31T00:42:04;101005.12;;;11.69;91.27
75794;BME280;64418;47.536;19.074;2022-10-31T00:44:29;101003.44;;;11.68;91.50
75794;BME280;64418;47.536;19.074;2022-10-31T00:46:55;100999.66;;;11.63;91.44
75794;BME280;64418;47.536;19.074;2022-10-31T00:49:21;100999.75;;;11.48;92.29
75794;BME280;64418;47.536;19.074;2022-10-31T00:51:46;100995.75;;;11.44;92.65
75794;BME280;64418;47.536;19.074;2022-10-31T00:54:12;100993.50;;;11.47;92.56
75794;BME280;64418;47.536;19.074;2022-10-31T00:56:38;100997.50;;;11.51;92.33
75794;BME280;64418;47.536;19.074;2022-10-31T00:59:06;100993.34;;;11.55;92.17
75794;BME280;64418;47.536;19.074;2022-10-31T01:01:31;101002.66;;;11.46;92.68
75794;BME280;64418;47.536;19.074;2022-10-31T01:03:57;101004.72;;;11.44;92.65
75794;BME280;64418;47.536;19.074;2022-10-31T01:06:23;101005.75;;;11.43;92.74
75794;BME280;64418;47.536;19.074;2022-10-31T01:08:49;101002.47;;;11.48;92.49
75794;BME280;64418;47.536;19.074;2022-10-31T01:11:16;101002.47;;;11.48;92.39
75794;BME280;64418;47.536;19.074;2022-10-31T01:13:42;100996.81;;;11.49;92.58
75794;BME280;64418;47.536;19.074;2022-10-31T01:16:12;100984.69;;;11.45;92.91
75794;BME280;64418;47.536;19.074;2022-10-31T01:18:38;100993.09;;;11.50;92.79
75794;BME280;64418;47.536;19.074;2022-10-31T01:21:05;100982.84;;;11.52;92.80
75794;BME280;64418;47.536;19.074;2022-10-31T01:23:32;100981.19;;;11.51;92.82
75794;BME280;64418;47.536;19.074;2022-10-31T01:26:00;100987.50;;;11.58;92.69
75794;BME280;64418;47.536;19.074;2022-10-31T01:28:26;100978.78;;;11.63;92.44
75794;BME280;64418;47.536;19.074;2022-10-31T01:30:51;100978.56;;;11.65;92.37
75794;BME280;64418;47.536;19.074;2022-10-31T01:33:18;100981.69;;;11.62;92.40
75794;BME280;64418;47.536;19.074;2022-10-31T01:35:44;100979.59;;;11.64;92.41
75794;BME280;64418;47.536;19.074;2022-10-31T01:38:10;100976.50;;;11.67;92.33
75794;BME280;64418;47.536;19.074;2022-10-31T01:40:36;100976.09;;;11.70;92.27
75794;BME280;64418;47.536;19.074;2022-10-31T01:43:02;100977.97;;;11.69;92.21
75794;BME280;64418;47.536;19.074;2022-10-31T01:45:27;100974.12;;;11.57;92.52
75794;BME280;64418;47.536;19.074;2022-10-31T01:47:53;100970.56;;;11.56;92.62
75794;BME280;64418;47.536;19.074;2022-10-31T01:50:28;100971.22;;;11.58;92.56
75794;BME280;64418;47.536;19.074;2022-10-31T01:52:58;100979.56;;;11.57;92.52
75794;BME280;64418;47.536;19.074;2022-10-31T01:55:29;100979.91;;;11.47;92.77
75794;BME280;64418;47.536;19.074;2022-10-31T01:57:59;100973.59;;;11.40;92.95
75794;BME280;64418;47.536;19.074;2022-10-31T02:00:27;100970.69;;;11.42;92.86
75794;BME280;64418;47.536;19.074;2022-10-31T02:02:53;100969.66;;;11.43;92.85
75794;BME280;64418;47.536;19.074;2022-10-31T02:05:21;100972.91;;;11.32;93.66
75794;BME280;64418;47.536;19.074;2022-10-31T02:07:54;100972.50;;;11.35;93.51
75794;BME280;64418;47.536;19.074;2022-10-31T02:10:22;100972.31;;;11.36;93.69
75794;BME280;64418;47.536;19.074;2022-10-31T02:12:48;100968.56;;;11.37;93.72
75794;BME280;64418;47.536;19.074;2022-10-31T02:15:15;100978.53;;;11.30;93.89
75794;BME280;64418;47.536;19.074;2022-10-31T02:17:41;100973.31;;;11.29;93.71
75794;BME280;64418;47.536;19.074;2022-10-31T02:20:14;100968.19;;;11.19;93.67
75794;BME280;64418;47.536;19.074;2022-10-31T02:23:18;100971.75;;;11.20;93.70
75794;BME280;64418;47.536;19.074;2022-10-31T02:25:59;100963.34;;;11.15;93.89
75794;BME280;64418;47.536;19.074;2022-10-31T02:28:50;100963.34;;;11.15;94.02
75794;BME280;64418;47.536;19.074;2022-10-31T02:31:28;100964.34;;;11.07;94.34
75794;BME280;64418;47.536;19.074;2022-10-31T02:34:04;100972.09;;;11.10;94.19
75794;BME280;64418;47.536;19.074;2022-10-31T02:36:40;100969.13;;;11.05;94.10
75794;BME280;64418;47.536;19.074;2022-10-31T02:39:12;100964.09;;;11.02;93.65
75794;BME280;64418;47.536;19.074;2022-10-31T02:41:47;100971.56;;;11.00;92.89
75794;BME280;64418;47.536;19.074;2022-10-31T02:44:20;100974.06;;;10.95;93.19
75794;BME280;64418;47.536;19.074;2022-10-31T02:46:52;100978.25;;;10.97;93.22
75794;BME280;64418;47.536;19.074;2022-10-31T02:49:26;100976.59;;;11.03;93.06
75794;BME280;64418;47.536;19.074;2022-10-31T02:51:53;100983.66;;;10.97;92.81
75794;BME280;64418;47.536;19.074;2022-10-31T02:54:21;100979.09;;;10.98;92.72
75794;BME280;64418;47.536;19.074;2022-10-31T02:56:49;100982.03;;;11.03;92.64
75794;BME280;64418;47.536;19.074;2022-10-31T02:59:18;100980.81;;;11.05;92.49
75794;BME280;64418;47.536;19.074;2022-10-31T03:05:06;100986.69;;;11.09;92.31
75794;BME280;64418;47.536;19.074;2022-10-31T03:07:42;100990.88;;;11.11;92.27
75794;BME280;64418;47.536;19.074;2022-10-31T03:10:17;100991.22;;;11.02;92.72
75794;BME280;64418;47.536;19.074;2022-10-31T03:12:49;100988.97;;;11.05;92.69
75794;BME280;64418;47.536;19.074;2022-10-31T03:15:23;100994.62;;;11.10;92.55
75794;BME280;64418;47.536;19.074;2022-10-31T03:17:56;100997.53;;;11.09;92.48
75794;BME280;64418;47.536;19.074;2022-10-31T03:20:29;100999.59;;;11.07;92.55
75794;BME280;64418;47.536;19.074;2022-10-31T03:22:56;100995.22;;;11.06;92.74
75794;BME280;64418;47.536;19.074;2022-10-31T03:25:22;100991.66;;;11.05;92.89
75794;BME280;64418;47.536;19.074;2022-10-31T03:27:50;101000.88;;;11.11;92.85
75794;BME280;64418;47.536;19.074;2022-10-31T03:30:16;100996.75;;;11.15;92.77
75794;BME280;64418;47.536;19.074;2022-10-31T03:32:44;100997.19;;;11.19;92.54
75794;BME280;64418;47.536;19.074;2022-10-31T03:35:16;100998.88;;;11.20;92.42
75794;BME280;64418;47.536;19.074;2022-10-31T03:37:43;100998.47;;;11.23;92.24
75794;BME280;64418;47.536;19.074;2022-10-31T03:40:11;100998.94;;;11.26;91.90
75794;BME280;64418;47.536;19.074;2022-10-31T03:42:42;101005.19;;;11.27;91.99
75794;BME280;64418;47.536;19.074;2022-10-31T03:45:12;101007.28;;;11.25;92.01
75794;BME280;64418;47.536;19.074;2022-10-31T03:47:39;101004.75;;;11.23;92.06
75794;BME280;64418;47.536;19.074;2022-10-31T03:50:08;101002.03;;;11.23;92.02
75794;BME280;64418;47.536;19.074;2022-10-31T03:52:41;101002.03;;;11.23;91.90
75794;BME280;64418;47.536;19.074;2022-10-31T03:55:11;101009.72;;;11.20;91.92
75794;BME280;64418;47.536;19.074;2022-10-31T03:57:40;101004.47;;;11.18;91.93
75794;BME280;64418;47.536;19.074;2022-10-31T04:00:11;101012.25;;;11.21;91.87
75794;BME280;64418;47.536;19.074;2022-10-31T04:02:41;101010.16;;;11.23;91.78
75794;BME280;64418;47.536;19.074;2022-10-31T04:05:09;101005.41;;;11.25;91.61
75794;BME280;64418;47.536;19.074;2022-10-31T04:07:41;101009.34;;;11.23;91.71
75794;BME280;64418;47.536;19.074;2022-10-31T04:10:12;101007.28;;;11.25;91.69
75794;BME280;64418;47.536;19.074;2022-10-31T04:12:39;101005.41;;;11.25;91.63
75794;BME280;64418;47.536;19.074;2022-10-31T04:15:06;101004.34;;;11.26;91.60
75794;BME280;64418;47.536;19.074;2022-10-31T04:17:36;101002.31;;;11.28;91.56
75794;BME280;64418;47.536;19.074;2022-10-31T04:20:05;101010.03;;;11.31;91.44
75794;BME280;64418;47.536;19.074;2022-10-31T04:22:31;101013.59;;;11.32;91.36
75794;BME280;64418;47.536;19.074;2022-10-31T04:24:58;101019.66;;;11.34;91.30
75794;BME280;64418;47.536;19.074;2022-10-31T04:27:24;101020.09;;;11.37;91.20
75794;BME280;64418;47.536;19.074;2022-10-31T04:29:49;101020.75;;;11.39;91.01
75794;BME280;64418;47.536;19.074;2022-10-31T04:32:15;101017.59;;;11.36;90.91
75794;BME280;64418;47.536;19.074;2022-10-31T04:34:41;101021.91;;;11.30;90.87
75794;BME280;64418;47.536;19.074;2022-10-31T04:37:07;101024.00;;;11.28;91.00
75794;BME280;64418;47.536;19.074;2022-10-31T04:39:33;101025.66;;;11.29;91.05
75794;BME280;64418;47.536;19.074;2022-10-31T04:42:00;101025.66;;;11.29;90.98
75794;BME280;64418;47.536;19.074;2022-10-31T04:44:26;101025.66;;;11.29;91.02
75794;BME280;64418;47.536;19.074;2022-10-31T04:46:52;101029.03;;;11.31;91.00
75794;BME280;64418;47.536;19.074;2022-10-31T04:49:17;101023.41;;;11.33;90.95
75794;BME280;64418;47.536;19.074;2022-10-31T04:51:43;101025.28;;;11.32;90.93
75794;BME280;64418;47.536;19.074;2022-10-31T04:54:09;101024.63;;;11.30;91.04
75794;BME280;64418;47.536;19.074;2022-10-31T04:56:34;101038.59;;;11.27;91.22
75794;BME280;64418;47.536;19.074;2022-10-31T04:59:02;101029.81;;;11.25;91.33
75794;BME280;64418;47.536;19.074;2022-10-31T05:01:27;101026.06;;;11.26;91.44
75794;BME280;64418;47.536;19.074;2022-10-31T05:03:53;101027.34;;;11.30;91.43
75794;BME280;64418;47.536;19.074;2022-10-31T05:06:18;101038.19;;;11.30;91.40
75794;BME280;64418;47.536;19.074;2022-10-31T05:08:44;101021.72;;;11.32;91.47
75794;BME280;64418;47.536;19.074;2022-10-31T05:11:10;101011.06;;;11.30;91.44
75794;BME280;64418;47.536;19.074;2022-10-31T05:13:35;101039.22;;;11.29;91.57
75794;BME280;64418;47.536;19.074;2022-10-31T05:16:03;101034.47;;;11.31;91.51
75794;BME280;64418;47.536;19.074;2022-10-31T05:18:28;101028.62;;;11.34;91.54
75794;BME280;64418;47.536;19.074;2022-10-31T05:20:54;101041.56;;;11.32;91.66
75794;BME280;64418;47.536;19.074;2022-10-31T05:23:19;101031.75;;;11.31;91.71
75794;BME280;64418;47.536;19.074;2022-10-31T05:25:45;101028.00;;;11.32;91.66
75794;BME280;64418;47.536;19.074;2022-10-31T05:28:11;101028.00;;;11.32;91.73
75794;BME280;64418;47.536;19.074;2022-10-31T05:30:37;101038.84;;;11.32;91.87
75794;BME280;64418;47.536;19.074;2022-10-31T05:33:04;101021.28;;;11.28;91.84
75794;BME280;64418;47.536;19.074;2022-10-31T05:35:31;101035.75;;;11.35;91.83
75794;BME280;64418;47.536;19.074;2022-10-31T05:37:58;101038.25;;;11.37;91.81
75794;BME280;64418;47.536;19.074;2022-10-31T05:40:26;101042.84;;;11.36;91.82
75794;BME280;64418;47.536;19.074;2022-10-31T05:42:53;101037.22;;;11.38;91.83
75794;BME280;64418;47.536;19.074;2022-10-31T05:45:22;101049.94;;;11.37;91.90
75794;BME280;64418;47.536;19.074;2022-10-31T05:47:51;101049.09;;;11.37;91.87
75794;BME280;64418;47.536;19.074;2022-10-31T05:50:18;101044.50;;;11.37;91.91
75794;BME280;64418;47.536;19.074;2022-10-31T05:52:45;101041.44;;;11.40;91.82
75794;BME280;64418;47.536;19.074;2022-10-31T05:55:12;101045.19;;;11.39;91.84
75794;BME280;64418;47.536;19.074;2022-10-31T05:57:38;101051.81;;;11.37;91.88
75794;BME280;64418;47.536;19.074;2022-10-31T06:00:05;101047.63;;;11.34;91.98
75794;BME280;64418;47.536;19.074;2022-10-31T06:02:31;101043.22;;;11.33;92.08
75794;BME280;64418;47.536;19.074;2022-10-31T06:04:57;101047.44;;;11.36;92.19
75794;BME280;64418;47.536;19.074;2022-10-31T06:07:24;101056.22;;;11.38;92.30
75794;BME280;64418;47.536;19.074;2022-10-31T06:09:50;101039.88;;;11.31;92.24
75794;BME280;64418;47.536;19.074;2022-10-31T06:12:15;101046.19;;;11.38;92.03
75794;BME280;64418;47.536;19.074;2022-10-31T06:14:41;101048.72;;;11.40;92.13
75794;BME280;64418;47.536;19.074;2022-10-31T06:17:07;101029.53;;;11.41;92.02
75794;BME280;64418;47.536;19.074;2022-10-31T06:19:32;101047.03;;;11.39;91.78
75794;BME280;64418;47.536;19.074;2022-10-31T06:21:58;101041.16;;;11.35;91.70
75794;BME280;64418;47.536;19.074;2022-10-31T06:24:25;101048.91;;;11.38;91.79
75794;BME280;64418;47.536;19.074;2022-10-31T06:26:51;101051.81;;;11.37;91.51
75794;BME280;64418;47.536;19.074;2022-10-31T06:29:17;101049.31;;;11.35;91.52
75794;BME280;64418;47.536;19.074;2022-10-31T06:31:42;101052.88;;;11.36;91.63
75794;BME280;64418;47.536;19.074;2022-10-31T06:34:08;101058.75;;;11.39;91.66
75794;BME280;64418;47.536;19.074;2022-10-31T06:36:34;101066.09;;;11.45;91.46
75794;BME280;64418;47.536;19.074;2022-10-31T06:39:00;101072.16;;;11.47;91.18
75794;BME280;64418;47.536;19.074;2022-10-31T06:41:27;101070.94;;;11.50;90.93
75794;BME280;64418;47.536;19.074;2022-10-31T06:43:53;101081.59;;;11.51;90.82
75794;BME280;64418;47.536;19.074;2022-10-31T06:46:18;101069.47;;;11.47;90.60
75794;BME280;64418;47.536;19.074;2022-10-31T06:48:44;101080.50;;;11.46;90.76
75794;BME280;64418;47.536;19.074;2022-10-31T06:51:10;101082.62;;;11.50;90.85
75794;BME280;64418;47.536;19.074;2022-10-31T06:53:36;101092.62;;;11.50;90.72
75794;BME280;64418;47.536;19.074;2022-10-31T06:56:02;101089.34;;;11.54;90.66
75794;BME280;64418;47.536;19.074;2022-10-31T06:58:30;101092.69;;;11.56;90.49
75794;BME280;64418;47.536;19.074;2022-10-31T07:00:59;101093.34;;;11.58;90.40
75794;BME280;64418;47.536;19.074;2022-10-31T07:03:24;101064.78;;;11.63;90.16
75794;BME280;64418;47.536;19.074;2022-10-31T07:05:50;101077.69;;;11.60;89.92
75794;BME280;64418;47.536;19.074;2022-10-31T07:08:16;101077.28;;;11.64;89.83
75794;BME280;64418;47.536;19.074;2022-10-31T07:10:42;101085.53;;;11.70;89.81
75794;BME280;64418;47.536;19.074;2022-10-31T07:13:11;101081.19;;;11.76;89.68
75794;BME280;64418;47.536;19.074;2022-10-31T07:15:40;101081.63;;;11.79;89.48
75794;BME280;64418;47.536;19.074;2022-10-31T07:18:08;101085.44;;;11.85;89.29
75794;BME280;64418;47.536;19.074;2022-10-31T07:20:34;101078.78;;;11.87;89.06
75794;BME280;64418;47.536;19.074;2022-10-31T07:23:00;101081.69;;;11.86;88.86
75794;BME280;64418;47.536;19.074;2022-10-31T07:25:26;101095.03;;;11.81;88.77
75794;BME280;64418;47.536;19.074;2022-10-31T07:27:52;101094.19;;;11.80;88.78
75794;BME280;64418;47.536;19.074;2022-10-31T07:30:18;101093.75;;;11.77;88.77
75794;BME280;64418;47.536;19.074;2022-10-31T07:32:46;101091.88;;;11.77;88.75
75794;BME280;64418;47.536;19.074;2022-10-31T07:35:15;101096.47;;;11.77;88.78
75794;BME280;64418;47.536;19.074;2022-10-31T07:37:41;101099.78;;;11.79;88.75
75794;BME280;64418;47.536;19.074;2022-10-31T07:40:08;101104.84;;;11.82;88.75
75794;BME280;64418;47.536;19.074;2022-10-31T07:42:34;101099.03;;;11.85;88.68
75794;BME280;64418;47.536;19.074;2022-10-31T07:45:00;101104.91;;;11.88;88.54
75794;BME280;64418;47.536;19.074;2022-10-31T07:47:25;101107.22;;;11.91;88.48
75794;BME280;64418;47.536;19.074;2022-10-31T07:49:53;101101.59;;;11.93;88.38
75794;BME280;64418;47.536;19.074;2022-10-31T07:52:18;101112.06;;;11.96;88.29
75794;BME280;64418;47.536;19.074;2022-10-31T07:54:44;101098.28;;;11.97;88.21
75794;BME280;64418;47.536;19.074;2022-10-31T07:57:10;101096.41;;;11.98;88.11
75794;BME280;64418;47.536;19.074;2022-10-31T07:59:35;101097.25;;;11.98;87.95
75794;BME280;64418;47.536;19.074;2022-10-31T08:02:02;101098.09;;;11.99;87.88
75794;BME280;64418;47.536;19.074;2022-10-31T08:04:27;101095.56;;;11.97;87.81
75794;BME280;64418;47.536;19.074;2022-10-31T08:06:54;101104.75;;;11.96;87.77
75794;BME280;64418;47.536;19.074;2022-10-31T08:09:20;101103.91;;;11.96;87.78
75794;BME280;64418;47.536;19.074;2022-10-31T08:11:45;101109.34;;;11.96;87.81
75794;BME280;64418;47.536;19.074;2022-10-31T08:14:11;101104.94;;;11.95;87.87
75794;BME280;64418;47.536;19.074;2022-10-31T08:16:37;101107.66;;;11.95;87.91
75794;BME280;64418;47.536;19.074;2022-10-31T08:19:02;101113.09;;;11.95;87.91
75794;BME280;64418;47.536;19.074;2022-10-31T08:21:28;101114.13;;;11.94;87.90
75794;BME280;64418;47.536;19.074;2022-10-31T08:23:55;101114.53;;;11.91;87.92
75794;BME280;64418;47.536;19.074;2022-10-31T08:26:20;101115.56;;;11.90;87.97
75794;BME280;64418;47.536;19.074;2022-10-31T08:28:46;101114.53;;;11.91;88.10
75794;BME280;64418;47.536;19.074;2022-10-31T08:31:12;101117.91;;;11.93;88.08
75794;BME280;64418;47.536;19.074;2022-10-31T08:33:37;101115.81;;;11.95;88.04
75794;BME280;64418;47.536;19.074;2022-10-31T08:36:03;101112.91;;;11.96;88.03
75794;BME280;64418;47.536;19.074;2022-10-31T08:38:29;101107.66;;;11.95;88.12
75794;BME280;64418;47.536;19.074;2022-10-31T08:40:56;101108.94;;;11.99;88.10
75794;BME280;64418;47.536;19.074;2022-10-31T08:43:21;101099.78;;;12.00;88.04
75794;BME280;64418;47.536;19.074;2022-10-31T08:45:48;101106.50;;;12.04;88.01
75794;BME280;64418;47.536;19.074;2022-10-31T08:48:16;101109.44;;;12.09;87.91
75794;BME280;64418;47.536;19.074;2022-10-31T08:50:43;101104.66;;;12.11;87.78
75794;BME280;64418;47.536;19.074;2022-10-31T08:53:11;101111.37;;;12.15;87.70
75794;BME280;64418;47.536;19.074;2022-10-31T08:55:38;101107.41;;;12.18;87.66
75794;BME280;64418;47.536;19.074;2022-10-31T08:58:09;101109.94;;;12.19;87.63
75794;BME280;64418;47.536;19.074;2022-10-31T09:00:35;101116.22;;;12.20;87.60
75794;BME280;64418;47.536;19.074;2022-10-31T09:03:01;101121.84;;;12.18;87.57
75794;BME280;64418;47.536;19.074;2022-10-31T09:05:28;101123.69;;;12.18;87.66
75794;BME280;64418;47.536;19.074;2022-10-31T09:07:55;101126.59;;;12.16;87.84
75794;BME280;64418;47.536;19.074;2022-10-31T09:10:21;101120.72;;;12.13;87.82
75794;BME280;64418;47.536;19.074;2022-10-31T09:12:47;101124.09;;;12.15;88.01
75794;BME280;64418;47.536;19.074;2022-10-31T09:15:14;101123.25;;;12.14;88.07
75794;BME280;64418;47.536;19.074;2022-10-31T09:17:46;101122.84;;;12.17;88.17
75794;BME280;64418;47.536;19.074;2022-10-31T09:20:12;101120.81;;;12.19;88.00
75794;BME280;64418;47.536;19.074;2022-10-31T09:22:37;101124.38;;;12.20;87.78
75794;BME280;64418;47.536;19.074;2022-10-31T09:25:03;101127.06;;;12.20;87.80
75794;BME280;64418;47.536;19.074;2022-10-31T09:27:29;101128.94;;;12.19;87.82
75794;BME280;64418;47.536;19.074;2022-10-31T09:29:55;101128.28;;;12.17;88.03
75794;BME280;64418;47.536;19.074;2022-10-31T09:32:22;101127.84;;;12.14;88.26
75794;BME280;64418;47.536;19.074;2022-10-31T09:34:47;101128.69;;;12.14;88.41
75794;BME280;64418;47.536;19.074;2022-10-31T09:37:13;101130.38;;;12.15;88.33
75794;BME280;64418;47.536;19.074;2022-10-31T09:39:39;101131.00;;;12.17;88.49
75794;BME280;64418;47.536;19.074;2022-10-31T09:42:15;101128.94;;;12.19;88.46
75794;BME280;64418;47.536;19.074;2022-10-31T09:44:53;101131.25;;;12.22;88.44
75794;BME280;64418;47.536;19.074;2022-10-31T09:47:32;101130.84;;;12.25;88.45
75794;BME280;64418;47.536;19.074;2022-10-31T09:50:14;101135.25;;;12.26;88.42
75794;BME280;64418;47.536;19.074;2022-10-31T09:52:47;101130.44;;;12.28;88.43
75794;BME280;64418;47.536;19.074;2022-10-31T09:55:20;101125.88;;;12.29;88.32
75794;BME280;64418;47.536;19.074;2022-10-31T09:57:50;101125.28;;;12.33;88.41
75794;BME280;64418;47.536;19.074;2022-10-31T10:00:18;101126.75;;;12.36;88.37
75794;BME280;64418;47.536;19.074;2022-10-31T10:02:48;101126.97;;;12.34;88.32
75794;BME280;64418;47.536;19.074;2022-10-31T10:05:18;101124.25;;;12.34;88.25
75794;BME280;64418;47.536;19.074;2022-10-31T10:07:52;101126.75;;;12.36;88.09
75794;BME280;64418;47.536;19.074;2022-10-31T10:10:30;101127.59;;;12.36;88.07
75794;BME280;64418;47.536;19.074;2022-10-31T10:13:26;101121.13;;;12.37;88.00
75794;BME280;64418;47.536;19.074;2022-10-31T10:16:03;101121.75;;;12.39;87.93
75794;BME280;64418;47.536;19.074;2022-10-31T10:18:41;101127.19;;;12.39;87.69
75794;BME280;64418;47.536;19.074;2022-10-31T10:21:19;101123.84;;;12.37;87.84
75794;BME280;64418;47.536;19.074;2022-10-31T10:23:56;101120.72;;;12.40;87.72
75794;BME280;64418;47.536;19.074;2022-10-31T10:26:30;101119.69;;;12.41;87.44
75794;BME280;64418;47.536;19.074;2022-10-31T10:29:03;101122.19;;;12.43;87.44
75794;BME280;64418;47.536;19.074;2022-10-31T10:31:39;101123.88;;;12.44;87.50
75794;BME280;64418;47.536;19.074;2022-10-31T10:34:12;101117.59;;;12.43;87.46
75794;BME280;64418;47.536;19.074;2022-10-31T10:36:44;101120.97;;;12.45;87.38
75794;BME280;64418;47.536;19.074;2022-10-31T10:39:16;101108.00;;;12.47;87.22
75794;BME280;64418;47.536;19.074;2022-10-31T10:41:48;101103.84;;;12.51;87.21
75794;BME280;64418;47.536;19.074;2022-10-31T10:44:14;101102.16;;;12.50;86.73
75794;BME280;64418;47.536;19.074;2022-10-31T10:46:41;101101.53;;;12.48;86.67
75794;BME280;64418;47.536;19.074;2022-10-31T10:49:16;101102.81;;;12.52;86.73
75794;BME280;64418;47.536;19.074;2022-10-31T10:51:46;101103.00;;;12.51;86.35
75794;BME280;64418;47.536;19.074;2022-10-31T10:57:12;101103.22;;;12.49;86.68
75794;BME280;64418;47.536;19.074;2022-10-31T10:59:42;101105.94;;;12.49;86.69
75794;BME280;64418;47.536;19.074;2022-10-31T11:02:19;101108.44;;;12.51;86.73
75794;BME280;64418;47.536;19.074;2022-10-31T11:04:50;101110.97;;;12.52;86.68
75794;BME280;64418;47.536;19.074;2022-10-31T11:07:17;101098.00;;;12.54;86.65
75794;BME280;64418;47.536;19.074;2022-10-31T11:09:42;101102.59;;;12.54;86.59
75794;BME280;64418;47.536;19.074;2022-10-31T11:12:09;101103.44;;;12.54;86.60
75794;BME280;64418;47.536;19.074;2022-10-31T11:14:44;101097.38;;;12.52;86.67
75794;BME280;64418;47.536;19.074;2022-10-31T11:17:26;101092.97;;;12.51;86.61
75794;BME280;64418;47.536;19.074;2022-10-31T11:20:22;101092.97;;;12.51;86.64
75794;BME280;64418;47.536;19.074;2022-10-31T11:22:49;101102.16;;;12.50;86.66
75794;BME280;64418;47.536;19.074;2022-10-31T11:25:21;101096.34;;;12.53;86.59
75794;BME280;64418;47.536;19.074;2022-10-31T11:27:58;101100.50;;;12.49;86.55
75794;BME280;64418;47.536;19.074;2022-10-31T11:30:24;101091.50;;;12.49;86.62
75794;BME280;64418;47.536;19.074;2022-10-31T11:32:50;101101.13;;;12.51;86.51
75794;BME280;64418;47.536;19.074;2022-10-31T11:35:19;101090.47;;;12.50;86.52
75794;BME280;64418;47.536;19.074;2022-10-31T11:37:48;101091.28;;;12.50;86.54
75794;BME280;64418;47.536;19.074;2022-10-31T11:40:17;101079.19;;;12.53;86.38
75794;BME280;64418;47.536;19.074;2022-10-31T11:42:43;101078.13;;;12.54;86.29
75794;BME280;64418;47.536;19.074;2022-10-31T11:45:15;101075.22;;;12.55;86.18
75794;BME280;64418;47.536;19.074;2022-10-31T11:47:43;101077.94;;;12.55;85.90
75794;BME280;64418;47.536;19.074;2022-10-31T11:50:20;101075.84;;;12.57;86.11
75794;BME280;64418;47.536;19.074;2022-10-31T11:52:48;101075.84;;;12.57;85.92
75794;BME280;64418;47.536;19.074;2022-10-31T11:55:16;101076.91;;;12.57;85.85
75794;BME280;64418;47.536;19.074;2022-10-31T11:57:52;101074.41;;;12.62;85.85
75794;BME280;64418;47.536;19.074;2022-10-31T12:00:24;101086.53;;;12.66;85.62
75794;BME280;64418;47.536;19.074;2022-10-31T12:02:50;101082.78;;;12.67;85.41
75794;BME280;64418;47.536;19.074;2022-10-31T12:05:20;101090.09;;;12.66;85.27
75794;BME280;64418;47.536;19.074;2022-10-31T12:07:49;101080.50;;;12.64;85.36
75794;BME280;64418;47.536;19.074;2022-10-31T12:10:16;101084.25;;;12.63;85.34
75794;BME280;64418;47.536;19.074;2022-10-31T12:12:56;101085.28;;;12.62;85.17
75794;BME280;64418;47.536;19.074;2022-10-31T12:15:31;101087.19;;;12.61;85.32
75794;BME280;64418;47.536;19.074;2022-10-31T12:18:15;101081.53;;;12.63;85.21
75794;BME280;64418;47.536;19.074;2022-10-31T12:20:54;101076.50;;;12.66;85.22
75794;BME280;64418;47.536;19.074;2022-10-31T12:23:28;101080.06;;;12.67;85.17
75794;BME280;64418;47.536;19.074;2022-10-31T12:26:05;101087.59;;;12.65;85.27
75794;BME280;64418;47.536;19.074;2022-10-31T12:28:49;101087.59;;;12.65;85.28
75794;BME280;64418;47.536;19.074;2022-10-31T12:31:28;101081.75;;;12.68;85.33
75794;BME280;64418;47.536;19.074;2022-10-31T12:34:01;101083.44;;;12.69;85.22
75794;BME280;64418;47.536;19.074;2022-10-31T12:36:49;101078.38;;;12.59;85.30
75794;BME280;64418;47.536;19.074;2022-10-31T12:39:31;101084.19;;;12.49;85.73
75794;BME280;64418;47.536;19.074;2022-10-31T12:42:05;101076.66;;;12.51;85.74
75794;BME280;64418;47.536;19.074;2022-10-31T12:44:50;101080.03;;;12.53;85.72
75794;BME280;64418;47.536;19.074;2022-10-31T12:47:52;101078.78;;;12.56;85.51
75794;BME280;64418;47.536;19.074;2022-10-31T12:50:31;101072.47;;;12.49;85.61
75794;BME280;64418;47.536;19.074;2022-10-31T12:53:10;101070.38;;;12.51;85.49
75794;BME280;64418;47.536;19.074;2022-10-31T12:55:47;101067.87;;;12.49;85.57